Time;durP1;ratioP1;P1;durP2;ratioP2;P2;SDS_P1;SDS_P2;PMS_P1;PMS_P2;Temp;Humidity;BMP_temperature;BMP_pressure;BME280_temperature;BME280_humidity;BME280_pressure;Samples;Min_cycle;Max_cycle;Signal;HPM_P1;HPM_P2
2023/05/04 00:02:02;;;;;;;6.53;3.07;;;10.10;99.90;;;;;;5011601;28;20033;-49
2023/05/04 00:04:28;;;;;;;8.27;3.00;;;10.00;99.90;;;;;;5011731;28;20441;-49
2023/05/04 00:06:53;;;;;;;5.97;2.73;;;10.00;99.90;;;;;;5011912;28;20164;-49
2023/05/04 00:09:19;;;;;;;7.00;2.77;;;9.90;99.90;;;;;;5011777;28;20363;-49
2023/05/04 00:11:45;;;;;;;5.43;2.90;;;9.90;99.90;;;;;;5011560;28;20022;-48
2023/05/04 00:14:10;;;;;;;5.77;3.17;;;9.90;99.90;;;;;;5012118;28;20554;-48
2023/05/04 00:16:36;;;;;;;4.97;2.77;;;9.90;99.90;;;;;;5011951;28;20037;-47
2023/05/04 00:19:02;;;;;;;4.70;2.63;;;9.90;99.90;;;;;;5011641;28;20502;-48
2023/05/04 00:21:27;;;;;;;5.33;2.57;;;9.80;99.90;;;;;;5011368;28;20715;-47
2023/05/04 00:23:53;;;;;;;4.93;2.57;;;9.80;99.90;;;;;;5011593;28;20130;-48
2023/05/04 00:26:19;;;;;;;4.37;2.40;;;9.80;99.90;;;;;;5011756;28;20037;-47
2023/05/04 00:28:45;;;;;;;8.17;2.60;;;9.70;99.90;;;;;;5011629;28;20058;-47
2023/05/04 00:31:11;;;;;;;7.50;2.80;;;9.80;99.90;;;;;;5010106;28;20057;-49
2023/05/04 00:33:36;;;;;;;5.50;3.00;;;9.70;99.90;;;;;;5011633;28;20029;-47
2023/05/04 00:36:03;;;;;;;4.33;2.67;;;9.60;99.90;;;;;;5011583;28;20482;-49
2023/05/04 00:38:28;;;;;;;4.93;2.53;;;9.60;99.90;;;;;;5010126;28;20044;-48
2023/05/04 00:40:54;;;;;;;6.00;2.40;;;9.60;99.90;;;;;;5011111;28;20034;-48
2023/05/04 00:43:20;;;;;;;6.60;3.33;;;9.50;99.90;;;;;;5010139;28;20539;-50
2023/05/04 00:45:46;;;;;;;6.30;2.50;;;9.50;99.90;;;;;;5011646;28;20033;-48
2023/05/04 00:48:12;;;;;;;4.03;2.47;;;9.50;99.90;;;;;;5009947;28;20076;-49
2023/05/04 00:50:39;;;;;;;4.37;2.50;;;9.50;99.90;;;;;;5011038;28;20500;-47
2023/05/04 00:53:08;;;;;;;5.10;2.17;;;9.50;99.90;;;;;;5011690;28;20026;-48
2023/05/04 00:55:39;;;;;;;5.40;2.53;;;9.50;99.90;;;;;;5010258;28;20109;-48
2023/05/04 00:58:06;;;;;;;4.83;2.13;;;9.50;99.90;;;;;;5011532;28;20390;-48
2023/05/04 01:00:32;;;;;;;7.13;3.07;;;9.40;99.90;;;;;;5011377;28;20034;-50
2023/05/04 01:02:58;;;;;;;5.23;2.20;;;9.40;99.90;;;;;;5015193;28;20037;-48
2023/05/04 01:05:29;;;;;;;6.57;2.70;;;9.40;99.90;;;;;;5015321;28;20029;-48
2023/05/04 01:08:14;;;;;;;5.77;2.50;;;9.30;99.90;;;;;;5015248;28;20586;-48
2023/05/04 01:10:49;;;;;;;7.50;2.73;;;9.20;99.90;;;;;;5014581;28;20026;-50
2023/05/04 01:13:17;;;;;;;6.23;2.60;;;9.10;99.90;;;;;;5014293;28;20068;-52
2023/05/04 01:15:43;;;;;;;5.23;2.87;;;9.10;99.90;;;;;;5014425;28;20030;-49
2023/05/04 01:18:09;;;;;;;4.20;2.50;;;9.10;99.90;;;;;;5014623;28;20117;-48
2023/05/04 01:20:35;;;;;;;4.30;2.43;;;9.10;99.90;;;;;;5013050;28;20088;-52
2023/05/04 01:23:01;;;;;;;5.10;2.53;;;9.10;99.90;;;;;;5015026;28;20389;-49
2023/05/04 01:25:42;;;;;;;3.67;2.47;;;9.00;99.90;;;;;;5013518;28;20033;-46
2023/05/04 01:28:22;;;;;;;5.70;2.97;;;8.90;99.90;;;;;;5014864;28;20053;-49
2023/05/04 01:30:52;;;;;;;9.30;3.30;;;8.90;99.90;;;;;;5014318;28;20030;-47
2023/05/04 01:33:19;;;;;;;5.87;2.50;;;8.80;99.90;;;;;;4996753;28;20057;-49
2023/05/04 01:35:45;;;;;;;6.97;3.23;;;8.80;99.90;;;;;;5013338;28;20030;-51
2023/05/04 01:38:11;;;;;;;6.87;2.63;;;8.80;99.90;;;;;;5014511;28;20116;-50
2023/05/04 01:40:38;;;;;;;4.53;2.77;;;8.80;99.90;;;;;;5012769;28;20117;-51
2023/05/04 01:43:04;;;;;;;6.93;2.90;;;8.80;99.90;;;;;;5014536;28;20455;-52
2023/05/04 01:45:30;;;;;;;6.03;3.10;;;8.80;99.90;;;;;;5014427;28;20033;-48
2023/05/04 01:47:56;;;;;;;5.63;3.13;;;8.70;99.90;;;;;;5012846;28;20038;-50
2023/05/04 01:50:21;;;;;;;3.70;2.53;;;8.70;99.90;;;;;;5012675;28;20059;-51
2023/05/04 01:52:47;;;;;;;4.83;2.73;;;8.70;99.90;;;;;;5014255;28;20025;-48
2023/05/04 01:55:14;;;;;;;5.07;2.73;;;8.70;99.90;;;;;;5014585;28;20051;-49
2023/05/04 01:57:40;;;;;;;5.70;2.87;;;8.60;99.90;;;;;;5012814;28;20449;-46
2023/05/04 02:00:06;;;;;;;4.60;2.57;;;8.60;99.90;;;;;;5012499;28;20076;-47
2023/05/04 02:02:44;;;;;;;6.53;3.20;;;8.50;99.90;;;;;;5012695;28;20649;-50
2023/05/04 02:05:13;;;;;;;5.07;2.75;;;8.50;99.90;;;;;;5012672;28;20065;-47
2023/05/04 02:07:38;;;;;;;5.13;3.10;;;8.50;99.90;;;;;;5012216;28;20077;-49
2023/05/04 02:10:07;;;;;;;5.87;3.10;;;8.40;99.90;;;;;;5012350;28;20426;-47
2023/05/04 02:12:33;;;;;;;4.80;2.50;;;8.40;99.90;;;;;;5013388;28;20080;-48
2023/05/04 02:14:59;;;;;;;6.63;3.10;;;8.40;99.90;;;;;;5013980;28;20022;-48
2023/05/04 02:17:24;;;;;;;7.80;3.50;;;8.30;99.90;;;;;;5012483;28;20045;-52
2023/05/04 02:19:50;;;;;;;6.30;3.60;;;8.30;99.90;;;;;;5012535;28;20030;-48
2023/05/04 02:22:16;;;;;;;5.37;2.93;;;8.30;99.90;;;;;;5013491;28;20120;-51
2023/05/04 02:24:43;;;;;;;5.83;3.40;;;8.30;99.90;;;;;;5012296;28;20083;-52
2023/05/04 02:27:09;;;;;;;6.80;3.00;;;8.20;99.90;;;;;;5013919;28;20038;-47
2023/05/04 02:29:35;;;;;;;8.90;3.77;;;8.20;99.90;;;;;;5012368;28;20543;-51
2023/05/04 02:32:01;;;;;;;6.03;2.93;;;8.10;99.90;;;;;;5013079;28;20108;-52
2023/05/04 02:34:27;;;;;;;5.43;3.10;;;8.10;99.90;;;;;;5013602;28;20137;-51
2023/05/04 02:36:53;;;;;;;5.77;3.23;;;8.10;99.90;;;;;;5013529;28;20041;-52
2023/05/04 02:39:19;;;;;;;6.13;3.53;;;8.10;99.90;;;;;;5013614;28;20037;-50
2023/05/04 02:41:44;;;;;;;5.83;2.80;;;8.10;99.90;;;;;;5011596;28;20482;-51
2023/05/04 02:44:10;;;;;;;7.23;3.47;;;8.00;99.90;;;;;;5012012;28;20088;-51
2023/05/04 02:46:36;;;;;;;6.07;3.27;;;8.00;99.90;;;;;;5013258;28;20073;-48
2023/05/04 02:49:02;;;;;;;6.70;3.37;;;8.00;99.90;;;;;;5013290;28;20550;-51
2023/05/04 02:51:27;;;;;;;6.07;3.17;;;7.90;99.90;;;;;;5012692;28;20034;-48
2023/05/04 02:53:53;;;;;;;5.10;3.03;;;7.90;99.90;;;;;;5011828;28;20133;-52
2023/05/04 02:56:19;;;;;;;7.53;3.50;;;7.90;99.90;;;;;;5011785;28;20093;-47
2023/05/04 02:58:45;;;;;;;7.53;3.80;;;7.90;99.90;;;;;;5011842;28;20029;-50
2023/05/04 03:01:11;;;;;;;8.57;3.80;;;7.80;99.90;;;;;;5012638;28;20116;-48
2023/05/04 03:03:36;;;;;;;8.97;3.20;;;7.80;99.90;;;;;;5012978;28;20120;-49
2023/05/04 03:06:02;;;;;;;7.00;3.00;;;7.80;99.90;;;;;;5012964;28;20616;-51
2023/05/04 03:08:29;;;;;;;6.97;3.33;;;7.80;99.90;;;;;;5011583;28;20401;-48
2023/05/04 03:10:54;;;;;;;7.43;3.37;;;7.80;99.90;;;;;;5012696;28;20398;-53
2023/05/04 03:13:20;;;;;;;7.33;4.00;;;7.80;99.90;;;;;;5012719;28;20030;-49
2023/05/04 03:15:46;;;;;;;7.17;3.03;;;7.70;99.90;;;;;;5011336;28;20034;-49
2023/05/04 03:18:12;;;;;;;6.07;3.23;;;7.70;99.90;;;;;;5011302;28;20088;-48
2023/05/04 03:20:37;;;;;;;5.53;3.20;;;7.60;99.90;;;;;;5010969;28;20121;-47
2023/05/04 03:23:03;;;;;;;8.07;3.50;;;7.60;99.90;;;;;;5010794;28;20430;-48
2023/05/04 03:25:29;;;;;;;6.70;3.73;;;7.70;99.90;;;;;;5010974;28;20037;-51
2023/05/04 03:27:56;;;;;;;9.23;3.40;;;7.70;99.90;;;;;;5010345;28;20067;-48
2023/05/04 03:30:21;;;;;;;7.83;3.60;;;7.70;99.90;;;;;;5010194;28;20130;-47
2023/05/04 03:32:48;;;;;;;7.13;3.57;;;7.70;99.90;;;;;;5009666;28;20105;-47
2023/05/04 03:35:14;;;;;;;8.70;3.60;;;7.70;99.90;;;;;;5006882;28;20036;-54
2023/05/04 03:37:40;;;;;;;6.73;3.37;;;7.70;99.90;;;;;;5017996;28;20104;-46
2023/05/04 03:40:06;;;;;;;5.97;3.10;;;7.70;99.90;;;;;;5019758;28;20034;-50
2023/05/04 03:42:32;;;;;;;9.13;3.87;;;7.70;99.90;;;;;;5021786;28;20397;-50
2023/05/04 03:44:58;;;;;;;8.47;3.93;;;7.70;99.90;;;;;;5027729;28;20036;-48
2023/05/04 03:47:24;;;;;;;5.97;3.40;;;7.70;99.90;;;;;;5019107;28;20029;-51
2023/05/04 03:49:50;;;;;;;5.77;3.60;;;7.60;99.90;;;;;;5018741;28;20470;-49
2023/05/04 03:52:15;;;;;;;6.70;3.60;;;7.50;99.90;;;;;;5010398;28;20057;-50
2023/05/04 03:54:41;;;;;;;6.00;3.47;;;7.50;99.90;;;;;;5018881;28;20033;-48
2023/05/04 03:57:07;;;;;;;6.90;3.60;;;7.50;99.90;;;;;;5024921;28;20120;-49
2023/05/04 03:59:35;;;;;;;6.27;3.60;;;7.40;99.90;;;;;;5013383;28;20025;-48
2023/05/04 04:02:03;;;;;;;5.00;3.47;;;7.40;99.90;;;;;;5009906;28;20065;-51
2023/05/04 04:04:29;;;;;;;7.03;3.60;;;7.40;99.90;;;;;;5016388;28;20135;-47
2023/05/04 04:06:56;;;;;;;6.93;3.80;;;7.40;99.90;;;;;;5015697;28;20025;-48
2023/05/04 04:09:23;;;;;;;8.87;4.00;;;7.40;99.90;;;;;;5009162;28;20033;-48
2023/05/04 04:11:50;;;;;;;8.67;3.93;;;7.30;99.90;;;;;;5016304;28;20429;-50
2023/05/04 04:14:16;;;;;;;7.13;3.47;;;7.30;99.90;;;;;;5012855;28;20022;-51
2023/05/04 04:16:41;;;;;;;10.37;4.17;;;7.30;99.90;;;;;;5014082;28;20018;-52
2023/05/04 04:19:07;;;;;;;10.13;4.20;;;7.30;99.90;;;;;;5019721;28;20420;-48
2023/05/04 04:21:33;;;;;;;8.23;4.07;;;7.40;99.90;;;;;;5020781;28;20029;-46
2023/05/04 04:23:59;;;;;;;7.00;3.83;;;7.40;99.90;;;;;;5020900;28;20597;-48
2023/05/04 04:26:25;;;;;;;8.73;4.20;;;7.40;99.90;;;;;;5021029;28;20465;-53
2023/05/04 04:28:50;;;;;;;7.13;3.50;;;7.30;99.90;;;;;;5021091;28;20120;-48
2023/05/04 04:31:17;;;;;;;7.50;3.97;;;7.30;99.90;;;;;;5022516;28;20033;-48
2023/05/04 04:33:43;;;;;;;9.27;4.10;;;7.40;99.90;;;;;;5018762;28;20101;-49
2023/05/04 04:36:10;;;;;;;8.00;3.90;;;7.40;99.90;;;;;;5020182;28;20470;-52
2023/05/04 04:38:36;;;;;;;7.93;3.90;;;7.40;99.90;;;;;;5023077;28;20068;-52
2023/05/04 04:41:02;;;;;;;7.73;4.30;;;7.40;99.90;;;;;;5016587;28;20104;-51
2023/05/04 04:43:28;;;;;;;8.47;4.30;;;7.40;99.90;;;;;;5012048;28;20701;-48
2023/05/04 04:45:57;;;;;;;9.40;3.80;;;7.40;99.90;;;;;;5002525;28;20072;-50
2023/05/04 04:48:24;;;;;;;9.43;4.63;;;7.40;99.90;;;;;;4999703;28;20116;-47
2023/05/04 04:50:51;;;;;;;9.07;4.20;;;7.40;99.90;;;;;;5023724;28;20025;-49
2023/05/04 04:53:17;;;;;;;6.93;3.90;;;7.40;99.90;;;;;;5016319;28;20110;-48
2023/05/04 04:55:43;;;;;;;7.63;4.23;;;7.40;99.90;;;;;;5025865;28;20370;-49
2023/05/04 04:58:09;;;;;;;8.17;3.80;;;7.50;99.90;;;;;;5019780;28;20045;-48
2023/05/04 05:00:35;;;;;;;8.77;3.80;;;7.50;99.90;;;;;;5019386;28;20026;-53
2023/05/04 05:03:02;;;;;;;8.00;4.50;;;7.50;99.90;;;;;;5020362;28;20108;-48
2023/05/04 05:05:28;;;;;;;8.47;4.43;;;7.60;99.90;;;;;;5020241;28;20040;-48
2023/05/04 05:07:54;;;;;;;8.23;3.87;;;7.60;99.90;;;;;;5020906;28;20029;-49
2023/05/04 05:10:22;;;;;;;8.40;4.03;;;7.70;99.90;;;;;;5006878;28;20029;-49
2023/05/04 05:12:51;;;;;;;6.78;4.22;;;7.90;99.90;;;;;;5021371;28;20026;-48
2023/05/04 05:15:17;;;;;;;8.75;4.50;;;7.90;99.90;;;;;;5016550;28;20515;-49
2023/05/04 05:17:43;;;;;;;9.03;4.57;;;8.00;99.90;;;;;;5022529;28;20051;-49
2023/05/04 05:20:10;;;;;;;9.20;4.17;;;8.10;99.90;;;;;;5007542;28;20037;-47
2023/05/04 05:22:37;;;;;;;7.77;3.70;;;8.20;99.90;;;;;;5011118;28;20033;-48
2023/05/04 05:25:04;;;;;;;10.20;4.20;;;8.20;99.90;;;;;;5008709;28;20037;-50
2023/05/04 05:27:31;;;;;;;6.73;4.10;;;8.30;99.90;;;;;;5020788;28;20025;-48
2023/05/04 05:29:58;;;;;;;8.47;4.13;;;8.40;99.90;;;;;;5019317;28;20014;-49
2023/05/04 05:32:23;;;;;;;7.33;3.90;;;8.60;99.90;;;;;;5019499;28;20036;-51
2023/05/04 05:34:49;;;;;;;7.83;3.83;;;8.70;99.90;;;;;;5019937;28;20022;-48
2023/05/04 05:37:15;;;;;;;8.37;3.40;;;8.80;99.90;;;;;;5018736;28;20412;-50
2023/05/04 05:39:40;;;;;;;7.93;4.30;;;9.00;99.90;;;;;;5018928;28;20071;-50
2023/05/04 05:42:07;;;;;;;8.13;3.70;;;9.20;99.90;;;;;;5018471;28;20155;-52
2023/05/04 05:44:36;;;;;;;9.40;4.47;;;9.30;99.90;;;;;;5019519;28;20351;-49
2023/05/04 05:47:02;;;;;;;7.72;3.75;;;9.50;99.90;;;;;;5019459;28;20138;-48
2023/05/04 05:49:28;;;;;;;9.57;3.57;;;9.60;99.90;;;;;;5019111;28;20033;-47
2023/05/04 05:51:54;;;;;;;7.27;3.67;;;9.70;99.90;;;;;;5022133;28;20044;-51
2023/05/04 05:54:21;;;;;;;8.60;4.07;;;9.70;99.90;;;;;;5022446;28;20398;-50
2023/05/04 05:56:48;;;;;;;9.73;4.30;;;9.80;99.90;;;;;;5016612;28;20057;-52
2023/05/04 05:59:14;;;;;;;10.07;3.83;;;9.90;99.90;;;;;;5019187;28;20026;-49
2023/05/04 06:01:40;;;;;;;7.30;3.63;;;10.10;99.90;;;;;;5014110;28;20029;-48
2023/05/04 06:04:06;;;;;;;8.00;3.27;;;10.20;99.90;;;;;;5019062;28;20181;-47
2023/05/04 06:06:32;;;;;;;9.50;4.27;;;10.30;99.90;;;;;;5015559;28;20032;-48
2023/05/04 06:08:59;;;;;;;7.53;3.40;;;10.40;99.90;;;;;;5014013;28;20119;-47
2023/05/04 06:11:28;;;;;;;7.93;4.17;;;10.50;99.90;;;;;;5026299;28;20445;-49
2023/05/04 06:13:53;;;;;;;6.65;3.75;;;10.60;99.90;;;;;;5018322;28;20374;-50
2023/05/04 06:16:19;;;;;;;7.50;3.50;;;10.70;99.90;;;;;;5030397;28;20032;-47
2023/05/04 06:18:45;;;;;;;7.40;3.50;;;10.80;99.90;;;;;;5022205;28;20053;-47
2023/05/04 06:21:11;;;;;;;5.23;3.13;;;10.90;99.90;;;;;;5019760;28;20035;-47
2023/05/04 06:23:36;;;;;;;8.90;4.10;;;11.20;99.90;;;;;;5013995;28;20034;-47
2023/05/04 06:26:09;;;;;;;6.00;3.20;;;11.30;99.90;;;;;;5018900;28;20033;-47
2023/05/04 06:28:35;;;;;;;6.37;3.50;;;11.50;99.90;;;;;;5021855;28;20064;-48
2023/05/04 06:31:01;;;;;;;7.53;3.53;;;11.60;99.90;;;;;;5021482;28;20025;-48
2023/05/04 06:33:27;;;;;;;5.80;3.57;;;11.70;99.90;;;;;;5018576;28;20057;-49
2023/05/04 06:35:53;;;;;;;6.53;3.43;;;11.90;99.90;;;;;;5021013;28;20474;-49
2023/05/04 06:38:19;;;;;;;7.60;3.60;;;11.90;99.90;;;;;;5020531;28;20029;-50
2023/05/04 06:40:44;;;;;;;7.93;3.77;;;12.00;99.90;;;;;;5018121;28;20466;-51
2023/05/04 06:43:10;;;;;;;8.23;3.60;;;12.10;99.90;;;;;;5020183;28;20117;-50
2023/05/04 06:45:36;;;;;;;8.70;4.30;;;12.20;99.90;;;;;;5021791;28;20496;-52
2023/05/04 06:48:03;;;;;;;8.87;4.10;;;12.20;99.90;;;;;;5029674;28;20029;-51
2023/05/04 06:50:29;;;;;;;7.93;3.93;;;12.30;99.90;;;;;;5025423;28;20029;-52
2023/05/04 06:53:03;;;;;;;6.68;3.42;;;12.40;99.90;;;;;;5018030;28;20032;-48
2023/05/04 06:55:29;;;;;;;7.38;3.70;;;12.60;99.90;;;;;;5014319;28;20026;-50
2023/05/04 06:57:55;;;;;;;7.88;3.85;;;13.00;99.90;;;;;;5021477;28;20037;-52
2023/05/04 07:00:21;;;;;;;6.60;3.70;;;13.10;99.90;;;;;;5026231;28;20480;-53
2023/05/04 07:02:47;;;;;;;9.45;3.67;;;13.40;99.90;;;;;;5024659;28;20516;-49
2023/05/04 07:05:13;;;;;;;5.80;3.60;;;13.60;99.90;;;;;;5016186;28;20029;-49
2023/05/04 07:07:39;;;;;;;8.40;3.60;;;14.00;99.90;;;;;;5010348;28;20040;-49
2023/05/04 07:10:05;;;;;;;6.30;3.67;;;14.30;99.90;;;;;;5002888;28;20021;-47
2023/05/04 07:12:31;;;;;;;8.60;3.65;;;14.50;99.90;;;;;;5007764;28;20092;-50
2023/05/04 07:14:56;;;;;;;9.65;3.50;;;15.00;99.90;;;;;;5008882;28;20482;-49
2023/05/04 07:17:24;;;;;;;8.35;3.80;;;14.80;99.90;;;;;;5008932;28;20017;-50
2023/05/04 07:19:53;;;;;;;7.43;3.55;;;14.70;99.90;;;;;;5010718;28;20065;-49
2023/05/04 07:22:19;;;;;;;6.25;3.00;;;14.80;99.90;;;;;;5007349;28;20055;-49
2023/05/04 07:24:45;;;;;;;5.97;3.20;;;15.20;99.90;;;;;;5017342;28;20038;-52
2023/05/04 07:27:11;;;;;;;5.30;2.90;;;15.40;99.90;;;;;;5020876;28;20069;-49
2023/05/04 07:29:37;;;;;;;6.57;3.22;;;15.60;99.90;;;;;;5020205;28;20114;-49
2023/05/04 07:32:03;;;;;;;7.30;2.90;;;15.80;99.90;;;;;;5016077;28;20021;-48
2023/05/04 07:34:30;;;;;;;7.93;3.30;;;16.10;99.90;;;;;;5020873;28;20278;-52
2023/05/04 07:36:55;;;;;;;7.10;3.00;;;16.10;99.90;;;;;;5021602;28;20025;-52
2023/05/04 07:39:22;;;;;;;8.43;3.25;;;16.20;99.90;;;;;;5017197;28;20026;-49
2023/05/04 07:41:50;;;;;;;5.03;3.17;;;16.20;99.90;;;;;;5015003;28;20033;-51
2023/05/04 07:44:16;;;;;;;6.38;3.15;;;16.20;99.90;;;;;;5027014;28;20018;-50
2023/05/04 07:46:42;;;;;;;5.00;2.55;;;16.40;99.90;;;;;;5018716;28;20034;-49
2023/05/04 07:49:07;;;;;;;8.25;2.97;;;16.40;99.10;;;;;;5028074;28;20021;-47
2023/05/04 07:51:33;;;;;;;6.43;2.90;;;16.40;98.90;;;;;;5016762;28;20466;-49
2023/05/04 07:53:59;;;;;;;5.82;3.03;;;16.40;99.60;;;;;;5017547;28;20114;-47
2023/05/04 07:56:25;;;;;;;5.80;2.88;;;16.50;99.10;;;;;;5017275;28;20051;-49
2023/05/04 07:58:51;;;;;;;5.28;3.10;;;16.70;99.00;;;;;;5011799;28;20113;-49
2023/05/04 08:01:16;;;;;;;5.60;3.13;;;17.00;98.50;;;;;;5024673;28;20450;-48
2023/05/04 08:03:43;;;;;;;4.43;2.58;;;17.00;98.50;;;;;;5017077;28;20025;-48
2023/05/04 08:06:08;;;;;;;6.10;2.72;;;17.20;96.60;;;;;;5009235;28;20107;-47
2023/05/04 08:08:34;;;;;;;5.25;2.53;;;17.30;96.50;;;;;;5009154;28;20025;-49
2023/05/04 08:11:00;;;;;;;4.40;2.55;;;17.40;96.40;;;;;;5011381;28;20022;-50
2023/05/04 08:13:25;;;;;;;5.20;2.53;;;17.30;96.90;;;;;;5016843;28;20022;-46
2023/05/04 08:15:51;;;;;;;5.55;2.22;;;17.40;97.30;;;;;;5023048;28;20036;-47
2023/05/04 08:18:17;;;;;;;5.00;2.10;;;17.60;95.60;;;;;;5015402;28;20117;-49
2023/05/04 08:20:42;;;;;;;3.90;2.17;;;17.80;94.40;;;;;;5014193;28;20022;-49
2023/05/04 08:23:09;;;;;;;5.10;1.83;;;17.90;94.20;;;;;;5012784;28;20079;-47
2023/05/04 08:25:34;;;;;;;2.65;1.67;;;17.90;95.50;;;;;;5015946;28;20080;-49
2023/05/04 08:28:00;;;;;;;4.85;2.70;;;18.10;95.70;;;;;;5016187;28;20424;-47
2023/05/04 08:30:26;;;;;;;2.72;1.70;;;18.30;93.30;;;;;;5018824;28;20028;-48
2023/05/04 08:32:54;;;;;;;4.68;2.55;;;18.40;93.40;;;;;;5013207;28;20055;-46
2023/05/04 08:35:22;;;;;;;3.08;1.40;;;18.50;94.00;;;;;;5016863;28;20018;-51
2023/05/04 08:37:48;;;;;;;3.47;1.73;;;18.70;93.80;;;;;;5015404;28;20397;-46
2023/05/04 08:40:14;;;;;;;3.42;1.88;;;18.80;93.80;;;;;;5011849;28;20037;-47
2023/05/04 08:42:39;;;;;;;4.95;2.05;;;18.90;92.10;;;;;;5016244;28;20088;-47
2023/05/04 08:45:06;;;;;;;4.47;1.58;;;18.90;92.20;;;;;;5025474;28;20033;-49
2023/05/04 08:47:31;;;;;;;3.05;1.90;;;18.90;92.60;;;;;;5016861;28;20394;-50
2023/05/04 08:49:57;;;;;;;2.80;1.67;;;18.90;95.10;;;;;;5022646;28;20030;-50
2023/05/04 08:52:24;;;;;;;3.80;1.70;;;19.00;92.40;;;;;;5014417;28;20022;-52
2023/05/04 08:55:00;;;;;;;4.55;2.22;;;19.20;90.90;;;;;;5009261;28;20347;-48
2023/05/04 08:57:26;;;;;;;3.78;2.15;;;19.20;91.00;;;;;;5017346;28;20029;-46
2023/05/04 08:59:53;;;;;;;4.38;1.77;;;19.40;90.90;;;;;;5003566;28;20129;-49
2023/05/04 09:02:21;;;;;;;3.72;2.10;;;19.70;90.70;;;;;;5005460;28;20041;-48
2023/05/04 09:04:48;;;;;;;3.90;1.93;;;19.90;89.20;;;;;;5009493;28;20037;-49
2023/05/04 09:07:16;;;;;;;3.28;1.88;;;19.90;88.30;;;;;;5004879;28;20504;-46
2023/05/04 09:09:42;;;;;;;2.70;1.80;;;19.90;88.10;;;;;;5006565;28;20080;-51
2023/05/04 09:12:07;;;;;;;3.13;2.00;;;19.90;87.50;;;;;;5014246;28;20068;-48
2023/05/04 09:14:35;;;;;;;3.35;2.10;;;19.70;87.90;;;;;;5011949;28;20088;-47
2023/05/04 09:17:02;;;;;;;3.08;1.90;;;19.70;90.40;;;;;;5020340;28;20052;-49
2023/05/04 09:19:37;;;;;;;3.22;2.28;;;19.80;88.40;;;;;;5016412;28;20430;-49
2023/05/04 09:22:16;;;;;;;4.28;2.42;;;20.00;88.10;;;;;;5020538;28;20156;-48
2023/05/04 09:24:42;;;;;;;3.33;2.35;;;20.00;85.90;;;;;;5011743;28;20093;-49
2023/05/04 09:27:12;;;;;;;5.10;2.63;;;20.00;87.70;;;;;;5024098;28;20029;-49
2023/05/04 09:29:39;;;;;;;4.40;2.22;;;20.10;84.70;;;;;;5010961;28;20106;-49
2023/05/04 09:32:11;;;;;;;4.07;2.10;;;20.30;86.70;;;;;;5010965;28;20600;-53
2023/05/04 09:34:45;;;;;;;3.30;2.25;;;20.30;85.30;;;;;;5009073;28;20036;-49
2023/05/04 09:37:11;;;;;;;3.67;2.55;;;20.50;83.50;;;;;;5011180;28;20033;-51
2023/05/04 09:39:36;;;;;;;3.97;2.40;;;20.50;84.30;;;;;;5015434;28;20474;-48
2023/05/04 09:42:03;;;;;;;3.40;2.00;;;20.60;85.20;;;;;;5021012;28;20029;-51
2023/05/04 09:44:29;;;;;;;3.72;2.30;;;20.60;83.90;;;;;;5010867;28;20034;-48
2023/05/04 09:46:56;;;;;;;4.88;2.35;;;20.70;82.60;;;;;;5013768;28;20033;-47
2023/05/04 09:49:33;;;;;;;4.78;2.88;;;20.70;83.50;;;;;;5013969;28;20088;-51
2023/05/04 09:52:02;;;;;;;4.43;2.17;;;20.90;80.90;;;;;;5013190;28;20026;-50
2023/05/04 09:54:37;;;;;;;2.88;1.80;;;21.10;81.40;;;;;;5013921;28;20063;-49
2023/05/04 09:57:14;;;;;;;4.57;2.30;;;21.60;83.10;;;;;;5013937;28;20044;-46
2023/05/04 09:59:41;;;;;;;3.38;2.53;;;21.90;81.50;;;;;;5013859;28;20037;-48
2023/05/04 10:02:08;;;;;;;5.35;2.33;;;22.00;82.30;;;;;;5013365;28;20038;-48
2023/05/04 10:04:38;;;;;;;3.70;2.72;;;22.30;79.50;;;;;;5013577;28;20120;-47
2023/05/04 10:07:05;;;;;;;4.45;2.70;;;22.30;77.30;;;;;;5013482;28;20026;-47
2023/05/04 10:09:32;;;;;;;3.90;2.42;;;22.40;77.60;;;;;;5013635;28;20474;-47
2023/05/04 10:11:59;;;;;;;4.03;2.63;;;22.40;78.00;;;;;;5013007;28;20546;-49
2023/05/04 10:14:29;;;;;;;4.20;2.40;;;22.20;78.40;;;;;;5013469;28;20485;-50
2023/05/04 10:17:10;;;;;;;4.53;2.10;;;22.30;76.80;;;;;;5013419;28;20026;-49
2023/05/04 10:19:46;;;;;;;4.47;2.42;;;22.40;72.10;;;;;;5013449;28;20109;-47
2023/05/04 10:22:24;;;;;;;5.60;2.30;;;22.40;73.70;;;;;;5012893;28;20033;-48
2023/05/04 10:25:27;;;;;;;4.83;2.40;;;22.40;74.40;;;;;;5013291;28;20029;-49
2023/05/04 10:28:11;;;;;;;3.67;2.25;;;22.60;72.80;;;;;;5011751;28;20452;-51
2023/05/04 10:30:38;;;;;;;4.68;2.40;;;22.50;75.40;;;;;;5012989;28;20386;-47
2023/05/04 10:33:04;;;;;;;4.22;2.17;;;22.60;72.20;;;;;;5012617;28;20033;-50
2023/05/04 10:35:31;;;;;;;4.95;2.17;;;22.80;71.60;;;;;;5012842;28;20033;-49
2023/05/04 10:37:57;;;;;;;3.30;2.08;;;23.10;69.50;;;;;;5012790;28;20033;-48
2023/05/04 10:40:36;;;;;;;5.15;2.53;;;23.20;69.50;;;;;;5012475;28;20041;-49
2023/05/04 10:43:02;;;;;;;3.50;2.10;;;23.20;71.30;;;;;;5012958;28;20374;-48
2023/05/04 10:45:56;;;;;;;4.72;2.17;;;23.50;69.30;;;;;;5011493;28;20042;-48
2023/05/04 10:48:34;;;;;;;2.97;1.90;;;24.30;66.70;;;;;;5011132;28;20048;-52
2023/05/04 10:50:59;;;;;;;4.97;2.30;;;24.20;66.80;;;;;;5012157;28;20026;-46
2023/05/04 10:53:31;;;;;;;3.17;2.20;;;24.00;67.60;;;;;;5011315;28;20512;-49
2023/05/04 10:55:57;;;;;;;2.58;1.90;;;23.70;65.00;;;;;;5012495;28;20285;-47
2023/05/04 10:58:28;;;;;;;3.70;1.90;;;23.60;69.40;;;;;;5012336;28;20041;-48
2023/05/04 11:00:53;;;;;;;3.55;2.38;;;23.60;67.40;;;;;;5011911;28;20065;-51
2023/05/04 11:03:20;;;;;;;3.33;2.20;;;23.60;67.70;;;;;;5012453;28;20038;-47
2023/05/04 11:05:51;;;;;;;4.20;2.00;;;23.70;66.90;;;;;;5012642;28;20037;-49
2023/05/04 11:08:25;;;;;;;4.05;1.95;;;23.50;66.30;;;;;;5012317;28;20034;-47
2023/05/04 11:11:07;;;;;;;3.50;1.92;;;23.20;66.10;;;;;;5011998;28;20088;-49
2023/05/04 11:13:39;;;;;;;3.13;1.92;;;23.20;66.50;;;;;;5012252;28;20037;-47
2023/05/04 11:16:05;;;;;;;3.80;1.83;;;23.10;63.80;;;;;;5010988;28;20030;-49
2023/05/04 11:18:36;;;;;;;3.00;2.03;;;23.20;64.40;;;;;;5012075;28;20346;-51
2023/05/04 11:21:02;;;;;;;5.53;2.50;;;23.20;65.20;;;;;;5011653;28;20486;-49
2023/05/04 11:23:28;;;;;;;3.50;1.80;;;23.40;64.10;;;;;;5012027;28;20084;-48
2023/05/04 11:25:54;;;;;;;4.75;1.75;;;23.40;62.30;;;;;;5012407;28;20038;-50
2023/05/04 11:28:33;;;;;;;4.43;2.15;;;23.40;62.30;;;;;;5012160;28;20088;-47
2023/05/04 11:30:59;;;;;;;3.50;2.15;;;23.30;64.20;;;;;;5011594;28;20026;-47
2023/05/04 11:33:25;;;;;;;4.47;1.70;;;23.30;63.90;;;;;;5011746;28;20087;-47
2023/05/04 11:36:00;;;;;;;2.85;2.10;;;23.10;65.20;;;;;;5012005;28;20030;-48
2023/05/04 11:38:25;;;;;;;4.43;2.03;;;23.10;64.00;;;;;;5011678;28;20057;-50
2023/05/04 11:40:51;;;;;;;4.18;1.90;;;23.00;65.80;;;;;;5011293;28;20049;-48
2023/05/04 11:43:17;;;;;;;2.75;1.80;;;23.00;65.70;;;;;;5011604;28;20414;-48
2023/05/04 11:45:46;;;;;;;3.88;2.00;;;23.10;66.00;;;;;;5011028;28;20036;-48
2023/05/04 11:48:12;;;;;;;3.92;2.42;;;23.20;64.80;;;;;;5011509;28;20026;-47
2023/05/04 11:50:38;;;;;;;4.32;2.33;;;23.40;64.70;;;;;;5011053;28;20053;-48
2023/05/04 11:53:09;;;;;;;3.60;2.00;;;23.40;62.60;;;;;;5011513;28;20124;-48
2023/05/04 11:55:38;;;;;;;4.25;1.95;;;23.40;63.60;;;;;;5011752;28;20022;-51
2023/05/04 11:58:07;;;;;;;3.90;1.98;;;23.30;65.50;;;;;;5011536;28;20125;-47
2023/05/04 12:00:36;;;;;;;;;;;23.30;63.10;;;;;;5011860;28;20041;-49
2023/05/04 12:03:02;;;;;;;;;;;23.20;62.50;;;;;;5012171;28;20328;-47
2023/05/04 12:05:29;;;;;;;3.30;1.70;;;23.30;61.70;;;;;;5011594;28;20362;-50
2023/05/04 12:07:55;;;;;;;2.50;1.90;;;23.30;61.80;;;;;;5011580;28;20500;-47
2023/05/04 12:10:27;;;;;;;4.15;2.13;;;23.00;60.60;;;;;;5011029;28;20026;-49
2023/05/04 12:12:53;;;;;;;3.08;1.90;;;22.80;61.20;;;;;;5011369;28;20054;-48
2023/05/04 12:15:30;;;;;;;3.53;1.60;;;23.00;61.70;;;;;;5011395;28;20030;-50
2023/05/04 12:17:56;;;;;;;1.98;1.50;;;23.20;61.50;;;;;;5009654;28;20045;-50
2023/05/04 12:20:29;;;;;;;3.45;1.92;;;23.20;59.90;;;;;;5010692;28;20057;-46
2023/05/04 12:22:56;;;;;;;3.20;1.60;;;23.20;60.40;;;;;;5011177;28;20040;-47
2023/05/04 12:25:25;;;;;;;3.55;1.83;;;23.50;59.80;;;;;;5011228;28;20036;-48
2023/05/04 12:27:52;;;;;;;3.03;1.88;;;23.50;58.70;;;;;;5010983;28;20088;-48
2023/05/04 12:30:17;;;;;;;2.88;1.60;;;23.40;58.60;;;;;;5010582;28;20036;-47
2023/05/04 12:32:44;;;;;;;2.60;1.67;;;23.40;58.40;;;;;;5010885;28;20034;-47
2023/05/04 12:35:10;;;;;;;3.70;1.92;;;23.60;58.10;;;;;;5011072;28;20393;-48
2023/05/04 12:37:36;;;;;;;3.72;1.90;;;23.70;58.70;;;;;;5009561;28;20033;-49
2023/05/04 12:40:03;;;;;;;2.80;1.55;;;23.90;55.80;;;;;;5010808;28;20050;-47
2023/05/04 12:42:29;;;;;;;2.10;1.20;;;23.70;56.60;;;;;;5010729;28;20030;-50
2023/05/04 12:44:55;;;;;;;2.47;1.50;;;23.80;55.30;;;;;;5010744;28;20061;-49
2023/05/04 12:47:23;;;;;;;2.63;1.42;;;23.60;55.20;;;;;;5010715;28;20049;-50
2023/05/04 12:49:49;;;;;;;2.13;1.42;;;23.50;54.40;;;;;;5010920;28;20252;-46
2023/05/04 12:52:15;;;;;;;2.60;1.48;;;23.60;54.60;;;;;;5010275;28;20367;-49
2023/05/04 12:54:40;;;;;;;2.00;1.30;;;23.60;55.40;;;;;;5010772;28;20033;-49